createdAt,value
2019-04-16T00:01:34.663Z,3.00
2019-04-16T00:06:41.170Z,2.90
2019-04-16T00:11:47.595Z,2.80
2019-04-16T00:16:52.447Z,2.70
2019-04-16T00:21:59.232Z,2.70
2019-04-16T00:27:04.789Z,2.60
2019-04-16T00:32:11.404Z,2.50
2019-04-16T00:37:20.510Z,2.40
2019-04-16T00:42:22.886Z,2.40
2019-04-16T00:47:27.659Z,2.20
2019-04-16T00:52:36.640Z,2.30
2019-04-16T00:58:19.537Z,2.20
2019-04-16T01:03:21.611Z,2.20
2019-04-16T01:08:26.462Z,2.20
2019-04-16T01:13:32.478Z,2.10
2019-04-16T01:18:38.786Z,2.00
2019-04-16T01:23:48.557Z,1.90
2019-04-16T01:28:53.153Z,1.90
2019-04-16T01:33:59.569Z,1.90
2019-04-16T01:39:17.630Z,1.90
2019-04-16T01:44:14.336Z,1.90
2019-04-16T01:49:19.104Z,1.80
2019-04-16T01:54:23.872Z,1.70
2019-04-16T01:59:28.622Z,1.70
2019-04-16T02:04:33.373Z,1.70
2019-04-16T02:09:38.209Z,1.60
2019-04-16T02:14:42.967Z,1.60
2019-04-16T02:19:47.697Z,1.50
2019-04-16T02:24:52.738Z,1.30
2019-04-16T02:29:58.498Z,1.20
2019-04-16T02:35:06.287Z,1.10
2019-04-16T02:40:16.934Z,1.10
2019-04-16T02:45:22.452Z,1.10
2019-04-16T02:50:30.656Z,1.00
2019-04-16T02:55:34.099Z,1.00
2019-04-16T03:00:40.458Z,1.00
2019-04-16T03:05:46.922Z,1.00
2019-04-16T03:10:51.763Z,1.10
2019-04-16T03:15:59.330Z,1.10
2019-04-16T03:21:04.378Z,1.10
2019-04-16T03:26:09.230Z,0.90
2019-04-16T03:31:19.452Z,0.80
2019-04-16T03:36:20.383Z,0.70
2019-04-16T03:41:25.847Z,0.60
2019-04-16T03:46:30.918Z,0.40
2019-04-16T03:51:36.569Z,0.40
2019-04-16T03:56:41.824Z,0.40
2019-04-16T04:01:47.776Z,0.40
2019-04-16T04:06:52.543Z,0.40
2019-04-16T04:11:57.428Z,0.40
2019-04-16T04:17:05.185Z,0.50
2019-04-16T04:22:08.644Z,0.60
2019-04-16T04:27:18.268Z,0.70
2019-04-16T04:32:19.810Z,0.80
2019-04-16T04:37:24.642Z,0.80
2019-04-16T04:42:29.580Z,1.00
2019-04-16T04:47:34.488Z,1.10
2019-04-16T04:52:39.376Z,1.30
2019-04-16T04:57:44.158Z,1.40
2019-04-16T05:02:48.923Z,1.60
2019-04-16T05:07:59.671Z,1.70
2019-04-16T05:13:01.652Z,1.90
2019-04-16T05:18:09.722Z,2.00
2019-04-16T05:23:12.994Z,2.20
2019-04-16T05:28:55.680Z,2.40
2019-04-16T05:34:02.394Z,2.60
2019-04-16T05:39:08.789Z,2.80
2019-04-16T05:44:13.582Z,3.00
2019-04-16T05:49:18.418Z,3.20
2019-04-16T05:54:24.913Z,3.40
2019-04-16T05:59:33.467Z,3.70
2019-04-16T06:04:36.071Z,4.00
2019-04-16T06:09:44.090Z,4.40
2019-04-16T06:14:49.571Z,4.80
2019-04-16T06:19:55.242Z,5.00
2019-04-16T06:25:08.254Z,5.20
2019-04-16T06:30:10.167Z,5.50
2019-04-16T06:35:16.686Z,5.70
2019-04-16T06:40:23.248Z,5.90
2019-04-16T06:45:29.763Z,6.20
2019-04-16T06:50:40.615Z,6.50
2019-04-16T06:55:44.383Z,6.70
2019-04-16T07:00:51.007Z,6.90
2019-04-16T07:05:57.622Z,7.10
2019-04-16T07:11:12.826Z,7.30
2019-04-16T07:16:17.703Z,7.50
2019-04-16T07:21:59.535Z,7.70
2019-04-16T07:27:04.538Z,7.90
2019-04-16T07:32:47.266Z,8.10
2019-04-16T07:37:53.649Z,8.30
2019-04-16T07:43:00.225Z,8.60
2019-04-16T07:48:07.038Z,8.80
2019-04-16T07:53:51.190Z,9.10
2019-04-16T07:59:00.049Z,9.30
2019-04-16T08:04:38.850Z,9.60
2019-04-16T08:09:43.766Z,9.70
2019-04-16T08:15:25.415Z,10.00
2019-04-16T08:20:30.469Z,10.10
2019-04-16T08:26:13.819Z,10.40
2019-04-16T08:31:20.418Z,10.60
2019-04-16T08:37:02.616Z,10.80
2019-04-16T08:42:07.704Z,11.10
2019-04-16T08:47:12.962Z,11.30
2019-04-16T08:52:18.187Z,11.70
2019-04-16T08:57:23.073Z,11.80
2019-04-16T09:02:28.872Z,11.80
2019-04-16T09:07:35.407Z,11.90
2019-04-16T09:12:44.962Z,12.10
2019-04-16T09:17:48.384Z,12.30
2019-04-16T09:22:54.524Z,12.50
2019-04-16T09:28:01.892Z,12.40
2019-04-16T09:33:08.892Z,12.90
2019-04-16T09:38:15.392Z,12.80
2019-04-16T09:43:21.918Z,13.10
2019-04-16T09:48:26.852Z,13.00
2019-04-16T09:53:34.003Z,13.80
2019-04-16T09:58:42.343Z,15.90
2019-04-16T10:03:46.691Z,20.30
2019-04-16T10:08:51.644Z,23.20
2019-04-16T10:13:56.534Z,25.30
2019-04-16T10:19:01.407Z,26.70
2019-04-16T10:24:08.032Z,26.90
2019-04-16T10:29:14.496Z,26.60
2019-04-16T10:34:19.625Z,26.90
2019-04-16T10:39:26.168Z,26.10
2019-04-16T10:44:32.685Z,28.40
2019-04-16T10:49:39.249Z,29.00
2019-04-16T10:54:45.748Z,28.00
2019-04-16T10:59:52.433Z,28.00
2019-04-16T11:05:02.064Z,28.70
2019-04-16T11:10:11.597Z,30.00
2019-04-16T11:15:16.372Z,29.80
2019-04-16T11:20:21.252Z,31.00
2019-04-16T11:25:26.134Z,31.40
2019-04-16T11:30:34.294Z,31.70
2019-04-16T11:35:39.114Z,31.00
2019-04-16T11:40:44.096Z,31.60
2019-04-16T11:45:48.979Z,31.50
2019-04-16T11:51:30.037Z,30.80
2019-04-16T11:56:34.964Z,31.40
2019-04-16T12:01:41.503Z,31.40
2019-04-16T12:06:46.195Z,32.60
2019-04-16T12:11:52.574Z,33.20
2019-04-16T12:16:59.187Z,33.80
2019-04-16T12:22:05.636Z,33.10
2019-04-16T12:27:12.123Z,32.60
2019-04-16T12:32:18.727Z,33.30
2019-04-16T12:37:27.719Z,33.90
2019-04-16T12:42:34.270Z,34.80
2019-04-16T12:47:40.884Z,34.30
2019-04-16T12:53:24.787Z,33.00
2019-04-16T12:58:29.435Z,33.10
2019-04-16T13:03:36.042Z,33.30
2019-04-16T13:08:42.557Z,33.40
2019-04-16T13:13:49.074Z,33.20
2019-04-16T13:18:55.477Z,33.40
2019-04-16T13:24:02.245Z,33.20
2019-04-16T13:29:08.831Z,33.00
2019-04-16T13:34:18.286Z,33.60
2019-04-16T13:39:20.414Z,33.90
2019-04-16T13:44:26.893Z,34.90
2019-04-16T13:49:33.279Z,35.20
2019-04-16T13:54:39.952Z,34.30
2019-04-16T13:59:46.648Z,33.60
2019-04-16T14:04:51.827Z,33.30
2019-04-16T14:09:56.809Z,33.50
2019-04-16T14:15:01.671Z,33.30
2019-04-16T14:20:08.648Z,33.40
2019-04-16T14:25:14.515Z,33.90
2019-04-16T14:30:21.037Z,33.30
2019-04-16T14:35:33.415Z,33.40
2019-04-16T14:40:34.118Z,33.20
2019-04-16T14:45:56.795Z,33.00
2019-04-16T14:50:46.911Z,32.50
2019-04-16T14:56:00.637Z,32.90
2019-04-16T15:01:01.495Z,32.20
2019-04-16T15:06:07.945Z,31.80
2019-04-16T15:11:14.308Z,31.40
2019-04-16T15:16:22.201Z,30.80
2019-04-16T15:21:26.967Z,30.60
2019-04-16T15:26:33.394Z,30.60
2019-04-16T15:31:39.896Z,30.30
2019-04-16T15:36:49.932Z,30.50
2019-04-16T15:41:54.476Z,30.30
2019-04-16T15:47:01.256Z,30.20
2019-04-16T15:52:10.016Z,29.20
2019-04-16T15:57:16.055Z,29.00
2019-04-16T16:02:22.605Z,28.50
2019-04-16T16:07:28.279Z,27.90
2019-04-16T16:12:33.072Z,28.30
2019-04-16T16:17:37.948Z,27.90
2019-04-16T16:22:42.876Z,26.90
2019-04-16T16:27:47.648Z,26.60
2019-04-16T16:32:59.283Z,26.50
2019-04-16T16:38:04.332Z,26.20
2019-04-16T16:43:09.368Z,25.50
2019-04-16T16:48:14.356Z,24.30
2019-04-16T16:53:41.032Z,24.30
2019-04-16T16:58:47.413Z,23.70
2019-04-16T17:03:53.887Z,22.70
2019-04-16T17:08:59.142Z,21.00
2019-04-16T17:14:04.175Z,19.60
2019-04-16T17:19:09.009Z,18.80
2019-04-16T17:24:13.881Z,18.00
2019-04-16T17:29:18.875Z,17.00
2019-04-16T17:34:24.266Z,16.20
2019-04-16T17:39:31.039Z,15.60
2019-04-16T17:44:37.484Z,15.00
2019-04-16T17:49:43.917Z,14.50
2019-04-16T17:54:48.556Z,13.90
2019-04-16T17:59:55.158Z,13.40
2019-04-16T18:05:01.909Z,12.90
2019-04-16T18:10:09.335Z,12.50
2019-04-16T18:15:15.932Z,12.10
2019-04-16T18:20:22.492Z,11.90
2019-04-16T18:25:29.076Z,11.60
2019-04-16T18:30:35.647Z,11.30
2019-04-16T18:35:42.532Z,11.00
2019-04-16T18:40:49.179Z,10.60
2019-04-16T18:45:56.614Z,10.30
2019-04-16T18:51:02.099Z,10.00
2019-04-16T18:56:06.917Z,9.70
2019-04-16T19:01:13.507Z,9.40
2019-04-16T19:06:18.575Z,9.20
2019-04-16T19:11:23.431Z,9.00
2019-04-16T19:16:28.319Z,8.80
2019-04-16T19:21:35.411Z,8.60
2019-04-16T19:26:44.950Z,8.40
2019-04-16T19:31:56.772Z,8.30
2019-04-16T19:37:03.065Z,8.00
2019-04-16T19:42:11.320Z,7.90
2019-04-16T19:47:19.123Z,7.70
2019-04-16T19:52:29.764Z,7.60
2019-04-16T19:57:35.655Z,7.70
2019-04-16T20:02:40.423Z,7.60
2019-04-16T20:07:45.232Z,7.60
2019-04-16T20:12:50.193Z,7.60
2019-04-16T20:17:55.284Z,7.50
2019-04-16T20:23:00.365Z,7.50
2019-04-16T20:28:09.225Z,7.60
2019-04-16T20:33:12.044Z,7.80
2019-04-16T20:38:17.412Z,7.80
2019-04-16T20:43:22.286Z,7.80
2019-04-16T20:48:27.115Z,7.80
2019-04-16T20:53:31.955Z,7.70
2019-04-16T20:58:36.807Z,7.70
2019-04-16T21:03:41.688Z,7.60
2019-04-16T21:08:46.524Z,7.60
2019-04-16T21:13:51.352Z,7.50
2019-04-16T21:18:56.239Z,7.40
2019-04-16T21:24:06.872Z,7.40
2019-04-16T21:29:14.159Z,7.30
2019-04-16T21:34:18.759Z,7.20
2019-04-16T21:39:26.933Z,7.20
2019-04-16T21:44:35.965Z,7.10
2019-04-16T21:49:45.031Z,7.00
2019-04-16T21:54:48.741Z,7.00
2019-04-16T21:59:56.763Z,7.00
2019-04-16T22:04:59.899Z,7.20
2019-04-16T22:10:05.104Z,7.40
2019-04-16T22:15:11.567Z,7.60
2019-04-16T22:20:17.531Z,7.90
2019-04-16T22:25:23.684Z,8.00
2019-04-16T22:30:30.861Z,8.10
2019-04-16T22:35:38.231Z,8.20
2019-04-16T22:40:45.166Z,8.30
2019-04-16T22:45:53.384Z,8.30
2019-04-16T22:50:59.350Z,8.30
2019-04-16T22:56:04.395Z,8.40
2019-04-16T23:01:10.427Z,8.40
2019-04-16T23:06:15.131Z,8.60
2019-04-16T23:11:23.331Z,8.60
2019-04-16T23:16:26.378Z,8.70
2019-04-16T23:21:32.385Z,8.70
2019-04-16T23:26:37.286Z,8.70
2019-04-16T23:31:42.086Z,8.80
2019-04-16T23:36:48.783Z,8.90
2019-04-16T23:41:53.631Z,8.90
2019-04-16T23:47:00.186Z,8.90
2019-04-16T23:52:06.639Z,8.90
2019-04-16T23:57:13.002Z,8.90
